Time;durP1;ratioP1;P1;durP2;ratioP2;P2;SDS_P1;SDS_P2;PMS_P1;PMS_P2;Temp;Humidity;BMP_temperature;BMP_pressure;BME280_temperature;BME280_humidity;BME280_pressure;Samples;Min_cycle;Max_cycle;Signal;HPM_P1;HPM_P2
2022/05/10 00:02:15;;;;;;;14.37;8.40;;;16.50;99.90;;;;;;5016835;28;20292;-51
2022/05/10 00:04:48;;;;;;;16.57;9.13;;;16.50;99.90;;;;;;5020067;28;20288;-49
2022/05/10 00:07:15;;;;;;;14.47;9.70;;;16.50;99.90;;;;;;5017743;28;20686;-49
2022/05/10 00:09:42;;;;;;;13.00;9.27;;;16.50;99.90;;;;;;5016206;28;20200;-53
2022/05/10 00:12:09;;;;;;;11.83;9.23;;;16.50;99.90;;;;;;5015905;28;20263;-51
2022/05/10 00:14:35;;;;;;;17.93;9.60;;;16.50;99.90;;;;;;5017366;28;20241;-53
2022/05/10 00:17:02;;;;;;;13.23;9.40;;;16.50;99.90;;;;;;5018888;28;20287;-53
2022/05/10 00:19:30;;;;;;;13.47;9.77;;;16.40;99.90;;;;;;5019317;28;20295;-52
2022/05/10 00:21:58;;;;;;;12.83;10.00;;;16.40;99.90;;;;;;5021722;28;20228;-52
2022/05/10 00:24:25;;;;;;;14.03;9.97;;;16.30;99.90;;;;;;5017956;28;20700;-53
2022/05/10 00:26:52;;;;;;;15.37;10.00;;;16.30;99.90;;;;;;5017872;28;20200;-53
2022/05/10 00:29:19;;;;;;;13.87;9.90;;;16.30;99.90;;;;;;5014641;28;20236;-51
2022/05/10 00:31:46;;;;;;;13.33;9.90;;;16.30;99.90;;;;;;5019452;28;20298;-52
2022/05/10 00:34:17;;;;;;;15.10;9.97;;;16.30;99.90;;;;;;5017089;28;20217;-52
2022/05/10 00:36:44;;;;;;;12.93;9.37;;;16.30;99.90;;;;;;5017774;28;20885;-51
2022/05/10 00:39:12;;;;;;;13.40;9.73;;;16.40;99.90;;;;;;5017604;28;20282;-52
2022/05/10 00:41:44;;;;;;;13.83;10.50;;;16.30;99.90;;;;;;5021419;28;20618;-52
2022/05/10 00:44:20;;;;;;;15.30;10.10;;;16.30;99.90;;;;;;5021341;28;20306;-51
2022/05/10 00:47:01;;;;;;;16.10;10.37;;;16.30;99.90;;;;;;5021437;28;20265;-52
2022/05/10 00:49:34;;;;;;;13.80;10.13;;;16.20;99.90;;;;;;5019219;28;20737;-51
2022/05/10 00:52:16;;;;;;;14.53;10.57;;;16.20;99.90;;;;;;5019193;28;20615;-51
2022/05/10 00:54:56;;;;;;;15.10;11.17;;;16.20;99.90;;;;;;5020299;28;20980;-54
2022/05/10 00:57:40;;;;;;;17.43;11.03;;;16.20;99.90;;;;;;5020775;28;20557;-53
2022/05/10 01:00:14;;;;;;;15.50;11.13;;;16.10;99.90;;;;;;5018141;28;20613;-52
2022/05/10 01:02:47;;;;;;;15.87;11.20;;;16.10;99.90;;;;;;5022860;28;20192;-52
2022/05/10 01:05:23;;;;;;;14.83;10.87;;;16.00;99.90;;;;;;5020616;28;20719;-51
2022/05/10 01:08:15;;;;;;;12.50;10.90;;;16.10;99.90;;;;;;5018434;28;20209;-52
2022/05/10 01:10:52;;;;;;;13.37;10.60;;;16.10;99.90;;;;;;5017606;28;20204;-51
2022/05/10 01:13:40;;;;;;;14.00;11.07;;;16.20;99.90;;;;;;5019925;28;20200;-52
2022/05/10 01:16:11;;;;;;;16.23;12.20;;;16.10;99.90;;;;;;5018227;28;20556;-52
2022/05/10 01:18:40;;;;;;;16.70;12.33;;;16.10;99.90;;;;;;5019871;28;20680;-52
2022/05/10 01:21:31;;;;;;;15.60;11.77;;;16.00;99.90;;;;;;5018655;28;20534;-52
2022/05/10 01:24:08;;;;;;;15.37;12.27;;;15.80;99.90;;;;;;5017250;28;20205;-51
2022/05/10 01:26:50;;;;;;;13.33;11.73;;;15.70;99.90;;;;;;5016871;28;20295;-53
2022/05/10 01:29:38;;;;;;;15.67;12.10;;;15.80;99.90;;;;;;5015108;28;20283;-52
2022/05/10 01:35:03;;;;;;;15.53;11.53;;;15.80;99.90;;;;;;5019012;28;20233;-51
2022/05/10 01:37:37;;;;;;;16.60;12.87;;;15.80;99.90;;;;;;5020933;28;20219;-52
2022/05/10 01:40:25;;;;;;;15.70;12.70;;;15.70;99.90;;;;;;5022703;28;20291;-50
2022/05/10 01:42:58;;;;;;;16.97;12.97;;;15.70;99.90;;;;;;5023267;28;20291;-51
2022/05/10 01:45:34;;;;;;;17.37;13.07;;;15.60;99.90;;;;;;5030811;28;20282;-51
2022/05/10 01:48:03;;;;;;;16.10;12.90;;;15.60;99.90;;;;;;5021147;28;21699;-51
2022/05/10 01:51:09;;;;;;;16.40;13.53;;;15.50;99.90;;;;;;5024421;28;20200;-53
2022/05/10 01:53:38;;;;;;;16.83;13.50;;;15.40;99.90;;;;;;5022016;28;20330;-51
2022/05/10 01:56:11;;;;;;;17.90;13.13;;;15.60;99.90;;;;;;5026071;28;20213;-52
2022/05/10 01:58:41;;;;;;;17.23;13.40;;;15.70;99.90;;;;;;5016754;28;20355;-51
2022/05/10 02:01:11;;;;;;;17.30;13.53;;;15.70;99.90;;;;;;5022295;28;20225;-52
2022/05/10 02:03:46;;;;;;;16.40;14.70;;;15.70;99.90;;;;;;5019447;28;20250;-50
2022/05/10 02:06:42;;;;;;;17.27;13.13;;;15.80;99.90;;;;;;5024007;28;20663;-51
2022/05/10 02:09:24;;;;;;;20.93;15.00;;;15.90;99.90;;;;;;5020951;28;20271;-51
2022/05/10 02:11:55;;;;;;;16.73;13.67;;;15.80;99.90;;;;;;5024171;28;20672;-52
2022/05/10 02:14:42;;;;;;;16.43;14.57;;;15.70;99.90;;;;;;5019987;28;20291;-51
2022/05/10 02:17:27;;;;;;;20.87;14.43;;;15.70;99.90;;;;;;5024659;28;20780;-52
2022/05/10 02:20:00;;;;;;;20.17;13.73;;;15.70;99.90;;;;;;5020400;28;20756;-51
2022/05/10 02:22:28;;;;;;;19.20;13.80;;;15.70;99.90;;;;;;5016704;28;20255;-51
2022/05/10 02:24:58;;;;;;;17.83;15.00;;;15.80;99.90;;;;;;5022975;28;20243;-51
2022/05/10 02:27:32;;;;;;;17.57;13.60;;;15.90;99.90;;;;;;5022095;28;20716;-52
2022/05/10 02:30:04;;;;;;;18.53;14.17;;;15.90;99.90;;;;;;5024295;28;20235;-51
2022/05/10 02:35:31;;;;;;;18.97;14.47;;;16.00;99.90;;;;;;5021439;28;20302;-51
2022/05/10 02:37:58;;;;;;;19.20;14.90;;;16.00;99.90;;;;;;5022396;28;20719;-51
2022/05/10 02:40:25;;;;;;;19.53;14.70;;;15.90;99.90;;;;;;5021247;28;20274;-51
2022/05/10 02:42:52;;;;;;;21.87;15.53;;;15.90;99.90;;;;;;5022725;28;20240;-52
2022/05/10 02:45:18;;;;;;;24.20;15.20;;;15.90;99.90;;;;;;5022512;28;20656;-51
2022/05/10 02:47:47;;;;;;;21.90;14.60;;;15.90;99.90;;;;;;5023593;28;20682;-51
2022/05/10 02:50:23;;;;;;;22.17;14.70;;;15.80;99.90;;;;;;5020189;28;20211;-52
2022/05/10 02:52:51;;;;;;;21.87;15.37;;;15.90;99.90;;;;;;5021804;28;20287;-52
2022/05/10 02:55:36;;;;;;;20.90;15.00;;;15.80;99.90;;;;;;5017455;28;20315;-52
2022/05/10 02:58:15;;;;;;;18.07;13.77;;;15.80;99.90;;;;;;5019683;28;20285;-51
2022/05/10 03:00:42;;;;;;;17.80;14.93;;;15.90;99.90;;;;;;5018645;28;20290;-51
2022/05/10 03:03:15;;;;;;;19.20;14.17;;;16.00;99.90;;;;;;5022634;28;20324;-52
2022/05/10 03:05:42;;;;;;;18.60;14.37;;;16.00;99.90;;;;;;5021530;28;20649;-52
2022/05/10 03:08:09;;;;;;;16.57;13.67;;;16.00;99.90;;;;;;5019091;28;20199;-51
2022/05/10 03:10:36;;;;;;;17.27;14.23;;;16.10;99.90;;;;;;5018844;28;20298;-51
2022/05/10 03:13:02;;;;;;;22.83;14.57;;;16.00;99.90;;;;;;5022055;28;20290;-52
2022/05/10 03:15:29;;;;;;;18.80;14.47;;;16.10;99.90;;;;;;5018903;28;20342;-51
2022/05/10 03:17:57;;;;;;;23.67;14.43;;;16.10;99.90;;;;;;5023637;28;20212;-51
2022/05/10 03:20:24;;;;;;;21.50;14.83;;;16.00;99.90;;;;;;5023903;28;20193;-51
2022/05/10 03:22:50;;;;;;;20.10;14.37;;;16.00;99.90;;;;;;5019131;28;20328;-52
2022/05/10 03:25:17;;;;;;;22.03;14.23;;;15.90;99.90;;;;;;5017753;28;20197;-50
2022/05/10 03:27:45;;;;;;;21.03;13.87;;;16.00;99.90;;;;;;5021224;28;20220;-51
2022/05/10 03:30:12;;;;;;;19.77;14.53;;;16.20;99.90;;;;;;5016059;28;20204;-51
2022/05/10 03:32:39;;;;;;;22.23;14.97;;;16.20;99.90;;;;;;5019504;28;20294;-52
2022/05/10 03:35:06;;;;;;;23.77;14.60;;;16.10;99.90;;;;;;5016331;28;20759;-51
2022/05/10 03:37:34;;;;;;;23.07;14.53;;;16.10;99.90;;;;;;5022747;28;20193;-52
2022/05/10 03:40:01;;;;;;;18.23;13.53;;;16.20;99.90;;;;;;5021700;28;20949;-52
2022/05/10 03:42:28;;;;;;;17.57;13.10;;;16.20;99.90;;;;;;5021369;28;20316;-51
2022/05/10 03:44:55;;;;;;;17.30;13.93;;;16.20;99.90;;;;;;5022714;28;20239;-51
2022/05/10 03:47:26;;;;;;;19.03;14.10;;;16.20;99.90;;;;;;5022581;28;21232;-51
2022/05/10 03:49:54;;;;;;;17.30;12.47;;;16.20;99.90;;;;;;5022656;28;20200;-51
2022/05/10 03:52:21;;;;;;;19.80;13.13;;;16.20;99.90;;;;;;5021554;28;20224;-52
2022/05/10 03:54:48;;;;;;;17.37;12.77;;;16.20;99.90;;;;;;5025797;28;20244;-51
2022/05/10 03:57:14;;;;;;;19.80;12.57;;;16.20;99.90;;;;;;5018085;28;20243;-51
2022/05/10 03:59:41;;;;;;;17.63;12.67;;;16.20;99.90;;;;;;5023934;28;20195;-52
2022/05/10 04:02:13;;;;;;;19.90;12.23;;;16.20;99.90;;;;;;5017704;28;20272;-51
2022/05/10 04:04:40;;;;;;;17.27;12.30;;;16.20;99.90;;;;;;5022543;28;20508;-52
2022/05/10 04:07:08;;;;;;;19.90;13.03;;;16.30;99.90;;;;;;5014705;28;20199;-51
2022/05/10 04:09:35;;;;;;;16.80;12.40;;;16.20;99.90;;;;;;5019813;28;20624;-51
2022/05/10 04:12:03;;;;;;;20.53;12.90;;;16.40;99.90;;;;;;5017757;28;20200;-52
2022/05/10 04:14:30;;;;;;;20.10;11.83;;;16.30;99.90;;;;;;5018712;28;20640;-52
2022/05/10 04:16:56;;;;;;;19.67;12.13;;;16.20;99.90;;;;;;5020592;28;20283;-51
2022/05/10 04:19:24;;;;;;;19.17;12.27;;;16.30;99.90;;;;;;5017762;28;20300;-51
2022/05/10 04:21:51;;;;;;;16.33;11.63;;;16.30;99.90;;;;;;5018186;28;20224;-52
2022/05/10 04:24:18;;;;;;;15.87;11.60;;;16.40;99.90;;;;;;5021815;28;20200;-52
2022/05/10 04:26:45;;;;;;;19.13;12.90;;;16.40;99.90;;;;;;5022673;28;20765;-50
2022/05/10 04:29:12;;;;;;;17.97;11.40;;;16.50;99.90;;;;;;5021710;28;20316;-52
2022/05/10 04:31:39;;;;;;;19.07;10.90;;;16.50;99.90;;;;;;5017675;28;20296;-51
2022/05/10 04:34:06;;;;;;;16.67;11.27;;;16.50;99.90;;;;;;5015975;28;20567;-52
2022/05/10 04:36:34;;;;;;;14.97;11.30;;;16.40;99.90;;;;;;5019676;28;20276;-51
2022/05/10 04:39:01;;;;;;;15.83;11.17;;;16.50;99.90;;;;;;5018792;28;20286;-52
2022/05/10 04:41:35;;;;;;;18.60;11.40;;;16.50;99.90;;;;;;5017916;28;20249;-51
2022/05/10 04:44:06;;;;;;;15.27;9.87;;;16.60;99.90;;;;;;5016134;28;20287;-50
2022/05/10 04:46:35;;;;;;;17.20;10.87;;;16.60;99.90;;;;;;5019182;28;20590;-53
2022/05/10 04:49:03;;;;;;;18.90;10.80;;;16.60;99.90;;;;;;5017189;28;20624;-52
2022/05/10 04:51:30;;;;;;;16.77;10.63;;;16.70;99.90;;;;;;5021356;28;20610;-52
2022/05/10 04:53:58;;;;;;;15.50;10.30;;;16.60;99.90;;;;;;5017483;28;20701;-52
2022/05/10 04:56:25;;;;;;;18.47;9.87;;;16.70;99.90;;;;;;5019730;28;20215;-52
2022/05/10 04:58:54;;;;;;;17.03;10.00;;;16.70;99.90;;;;;;5020186;28;20264;-53
2022/05/10 05:01:26;;;;;;;16.43;10.30;;;16.70;99.90;;;;;;5013273;28;20206;-52
2022/05/10 05:03:59;;;;;;;14.67;11.00;;;16.70;99.90;;;;;;5012982;28;20461;-51
2022/05/10 05:06:27;;;;;;;17.87;10.90;;;16.70;99.90;;;;;;5019728;28;20282;-51
2022/05/10 05:08:55;;;;;;;16.10;10.87;;;16.80;99.90;;;;;;5024172;28;20268;-52
2022/05/10 05:11:23;;;;;;;15.13;10.60;;;16.80;99.90;;;;;;5021351;28;20300;-51
2022/05/10 05:13:49;;;;;;;17.03;11.47;;;16.80;99.90;;;;;;5019281;28;20206;-53
2022/05/10 05:16:16;;;;;;;17.00;11.43;;;16.70;99.90;;;;;;5021173;28;20216;-52
2022/05/10 05:18:43;;;;;;;14.80;10.73;;;16.80;99.90;;;;;;5020434;28;20216;-53
2022/05/10 05:21:10;;;;;;;18.63;11.07;;;16.70;99.90;;;;;;5022707;28;20189;-49
2022/05/10 05:23:37;;;;;;;17.43;10.80;;;16.80;99.90;;;;;;5023519;28;20272;-54
2022/05/10 05:26:04;;;;;;;17.30;10.83;;;16.80;99.90;;;;;;5021217;28;20296;-52
2022/05/10 05:28:31;;;;;;;15.40;11.10;;;16.80;99.90;;;;;;5021147;28;20201;-53
2022/05/10 05:30:59;;;;;;;17.70;11.07;;;16.80;99.90;;;;;;5020619;28;20295;-52
2022/05/10 05:33:26;;;;;;;17.27;10.63;;;16.80;99.90;;;;;;5025924;28;20258;-52
2022/05/10 05:35:52;;;;;;;15.90;11.77;;;16.90;99.90;;;;;;5022453;28;20248;-52
2022/05/10 05:38:19;;;;;;;19.23;11.53;;;16.90;99.90;;;;;;5021502;28;20284;-52
2022/05/10 05:40:46;;;;;;;17.40;11.87;;;17.00;99.90;;;;;;5022872;28;20229;-51
2022/05/10 05:43:18;;;;;;;17.73;11.47;;;17.00;99.90;;;;;;5025685;28;20550;-51
2022/05/10 05:45:45;;;;;;;14.90;11.17;;;17.10;99.90;;;;;;5027233;28;20669;-51
2022/05/10 05:48:12;;;;;;;14.77;10.90;;;17.10;99.90;;;;;;5020487;28;20315;-51
2022/05/10 05:50:39;;;;;;;16.80;11.20;;;17.10;99.90;;;;;;5024119;28;20213;-52
2022/05/10 05:53:07;;;;;;;17.03;11.17;;;17.20;99.90;;;;;;5021259;28;20247;-52
2022/05/10 05:55:33;;;;;;;13.87;10.60;;;17.20;99.90;;;;;;5026359;28;20227;-52
2022/05/10 05:58:00;;;;;;;15.47;11.40;;;17.20;99.90;;;;;;5023596;28;20225;-52
2022/05/10 06:00:27;;;;;;;16.17;10.40;;;17.30;99.90;;;;;;5016508;28;20289;-49
2022/05/10 06:02:55;;;;;;;15.70;10.83;;;17.30;99.90;;;;;;5018606;28;20283;-52
2022/05/10 06:05:23;;;;;;;18.33;11.37;;;17.20;99.90;;;;;;5019209;28;20239;-50
2022/05/10 06:07:50;;;;;;;15.77;10.60;;;17.30;99.90;;;;;;5017512;28;20323;-51
2022/05/10 06:10:17;;;;;;;14.17;11.57;;;17.40;99.90;;;;;;5021591;28;20288;-52
2022/05/10 06:12:44;;;;;;;15.23;10.63;;;17.50;99.90;;;;;;5011248;28;20292;-51
2022/05/10 06:15:14;;;;;;;17.83;10.73;;;17.60;99.90;;;;;;5024416;28;20194;-51
2022/05/10 06:17:43;;;;;;;14.73;11.40;;;17.60;99.90;;;;;;5021468;28;20236;-52
2022/05/10 06:20:14;;;;;;;14.73;11.43;;;17.70;99.90;;;;;;5017347;28;20200;-53
2022/05/10 06:22:44;;;;;;;16.57;11.60;;;17.70;99.90;;;;;;5021246;28;20700;-51
2022/05/10 06:25:15;;;;;;;15.63;11.87;;;17.70;99.90;;;;;;5018535;28;20239;-53
2022/05/10 06:27:42;;;;;;;13.90;11.63;;;17.70;99.90;;;;;;5022980;28;20649;-52
2022/05/10 06:30:09;;;;;;;16.23;11.93;;;17.80;99.90;;;;;;5019484;28;20233;-52
2022/05/10 06:32:36;;;;;;;14.47;12.03;;;17.90;99.90;;;;;;5019079;28;20692;-52
2022/05/10 06:35:03;;;;;;;14.90;11.30;;;17.90;99.90;;;;;;5017422;28;20297;-52
2022/05/10 06:40:18;;;;;;;13.80;11.60;;;18.00;99.90;;;;;;5017821;28;20309;-51
2022/05/10 06:42:45;;;;;;;15.03;11.30;;;18.10;99.90;;;;;;5023626;28;20197;-53
2022/05/10 06:45:16;;;;;;;16.77;11.40;;;18.10;99.90;;;;;;5017405;28;20285;-52
2022/05/10 06:47:46;;;;;;;12.40;10.77;;;18.10;99.90;;;;;;5021302;28;20225;-52
2022/05/10 06:50:16;;;;;;;13.60;10.83;;;18.20;99.90;;;;;;5011694;28;20679;-52
2022/05/10 06:52:43;;;;;;;15.07;11.00;;;18.30;99.90;;;;;;5015917;28;20247;-54
2022/05/10 06:55:14;;;;;;;14.43;11.00;;;18.30;99.90;;;;;;5013389;28;20646;-52
2022/05/10 06:57:41;;;;;;;19.83;11.33;;;18.40;99.90;;;;;;5022935;28;20301;-54
2022/05/10 07:00:11;;;;;;;15.00;11.93;;;18.50;99.90;;;;;;5017176;28;20529;-52
2022/05/10 07:02:38;;;;;;;12.63;10.63;;;18.60;99.90;;;;;;5023712;28;20231;-51
2022/05/10 07:05:07;;;;;;;12.83;10.83;;;18.60;99.90;;;;;;5024911;28;20203;-53
2022/05/10 07:07:35;;;;;;;13.80;10.70;;;18.70;99.90;;;;;;5017574;28;21814;-52
2022/05/10 07:10:04;;;;;;;13.50;10.10;;;18.80;99.90;;;;;;5014611;28;20716;-53
2022/05/10 07:12:31;;;;;;;12.70;10.37;;;18.90;99.90;;;;;;5017924;28;20288;-53
2022/05/10 07:14:57;;;;;;;12.03;10.47;;;19.10;99.90;;;;;;5017063;28;20233;-52
2022/05/10 07:17:31;;;;;;;14.57;10.30;;;19.30;99.90;;;;;;5015987;28;20673;-53
2022/05/10 07:19:57;;;;;;;12.33;9.63;;;19.40;99.90;;;;;;5015754;28;20287;-52
2022/05/10 07:22:25;;;;;;;11.20;10.00;;;19.50;99.90;;;;;;5019965;28;20224;-49
2022/05/10 07:24:52;;;;;;;12.57;9.50;;;19.60;99.90;;;;;;5029921;28;20203;-50
2022/05/10 07:27:19;;;;;;;9.73;8.53;;;19.50;99.90;;;;;;5017746;28;20616;-51
2022/05/10 07:29:45;;;;;;;10.23;8.63;;;19.70;99.90;;;;;;5023109;28;20617;-52
2022/05/10 07:32:14;;;;;;;13.23;8.87;;;19.70;99.90;;;;;;5019021;28;20229;-50
2022/05/10 07:34:42;;;;;;;12.73;9.50;;;19.60;99.90;;;;;;5016127;28;20208;-52
2022/05/10 07:37:09;;;;;;;12.00;9.60;;;19.60;99.90;;;;;;5024052;28;20217;-51
2022/05/10 07:39:36;;;;;;;11.83;8.80;;;19.60;99.90;;;;;;5025039;28;20202;-51
2022/05/10 07:42:04;;;;;;;9.80;8.90;;;19.50;99.90;;;;;;5025774;28;20200;-53
2022/05/10 07:44:32;;;;;;;22.17;10.17;;;19.60;99.90;;;;;;5023435;28;20193;-53
2022/05/10 07:46:59;;;;;;;12.23;8.20;;;19.60;99.90;;;;;;5024563;28;20209;-53
2022/05/10 07:49:28;;;;;;;10.87;8.60;;;19.60;99.90;;;;;;5020313;28;20204;-52
2022/05/10 07:51:55;;;;;;;9.27;8.30;;;19.70;99.90;;;;;;5020115;28;20228;-52
2022/05/10 07:54:22;;;;;;;11.13;8.43;;;19.80;99.90;;;;;;5022831;28;20529;-52
2022/05/10 07:56:48;;;;;;;12.73;7.83;;;19.90;99.90;;;;;;5016861;28;20625;-52
2022/05/10 07:59:15;;;;;;;8.07;7.37;;;19.90;99.90;;;;;;5018069;28;20197;-52
2022/05/10 08:01:42;;;;;;;9.57;7.97;;;19.90;99.90;;;;;;5019919;28;20197;-50
2022/05/10 08:04:09;;;;;;;9.73;8.73;;;19.90;99.90;;;;;;5019004;28;20236;-51
2022/05/10 08:06:36;;;;;;;8.63;7.80;;;20.00;99.90;;;;;;5025445;28;20292;-52
2022/05/10 08:09:03;;;;;;;8.30;7.47;;;20.00;99.90;;;;;;5020750;28;20299;-51
2022/05/10 08:11:30;;;;;;;9.23;7.10;;;19.90;99.90;;;;;;5023092;28;20246;-51
2022/05/10 08:14:02;;;;;;;8.73;7.77;;;19.90;99.90;;;;;;5022533;28;20316;-52
2022/05/10 08:16:32;;;;;;;11.47;7.77;;;20.00;99.90;;;;;;5022684;28;20308;-51
2022/05/10 08:18:59;;;;;;;10.00;7.67;;;20.00;99.90;;;;;;5013666;28;20251;-52
2022/05/10 08:21:26;;;;;;;9.73;7.50;;;20.00;99.90;;;;;;5028796;28;20204;-52
2022/05/10 08:23:55;;;;;;;10.13;8.53;;;20.10;99.90;;;;;;5025124;28;20283;-52
2022/05/10 08:26:23;;;;;;;11.57;7.33;;;20.20;99.90;;;;;;5035462;28;20250;-53
2022/05/10 08:28:51;;;;;;;9.50;7.10;;;20.10;99.90;;;;;;5031709;28;20606;-52
2022/05/10 08:31:23;;;;;;;10.03;7.17;;;20.30;99.90;;;;;;5036200;28;20200;-52
2022/05/10 08:33:50;;;;;;;8.10;7.13;;;20.30;99.90;;;;;;5026961;28;20298;-51
2022/05/10 08:36:17;;;;;;;10.47;7.57;;;20.30;99.90;;;;;;5032239;28;20602;-52
2022/05/10 08:38:44;;;;;;;7.80;7.00;;;20.40;99.90;;;;;;5027850;28;20200;-52
2022/05/10 08:41:11;;;;;;;12.30;7.83;;;20.40;99.90;;;;;;5021446;28;20232;-52
2022/05/10 08:43:58;;;;;;;7.70;6.43;;;20.50;99.90;;;;;;5027572;28;20233;-52
2022/05/10 08:46:35;;;;;;;9.43;6.60;;;20.50;99.90;;;;;;5027348;28;20290;-53
2022/05/10 08:49:09;;;;;;;8.97;6.80;;;20.70;99.90;;;;;;5024084;28;20242;-52
2022/05/10 08:51:36;;;;;;;8.17;6.43;;;20.80;99.90;;;;;;5027790;28;20331;-52
2022/05/10 08:54:04;;;;;;;9.17;6.03;;;20.80;99.90;;;;;;5027165;28;20240;-54
2022/05/10 08:56:39;;;;;;;10.73;6.20;;;20.90;99.90;;;;;;5027453;28;20251;-52
2022/05/10 08:59:32;;;;;;;7.13;5.73;;;20.90;99.90;;;;;;5026815;28;20235;-52
2022/05/10 09:02:03;;;;;;;6.70;5.83;;;21.00;99.90;;;;;;5027577;28;20251;-52
2022/05/10 09:04:40;;;;;;;8.57;6.30;;;21.10;99.90;;;;;;5026008;28;20200;-52
2022/05/10 09:07:25;;;;;;;7.10;5.77;;;21.10;99.90;;;;;;5027198;28;20196;-57
2022/05/10 09:10:04;;;;;;;7.30;5.20;;;21.10;99.90;;;;;;5026840;28;20200;-50
2022/05/10 09:12:58;;;;;;;8.00;6.10;;;21.20;99.90;;;;;;5017172;28;20700;-52
2022/05/10 09:15:27;;;;;;;6.37;5.33;;;21.40;99.90;;;;;;5027680;28;20571;-53
2022/05/10 09:17:54;;;;;;;10.27;6.03;;;21.50;99.90;;;;;;5021776;28;20687;-53
2022/05/10 09:20:21;;;;;;;6.50;5.10;;;21.50;99.90;;;;;;5024814;28;20398;-52
2022/05/10 09:23:41;;;;;;;9.87;5.43;;;21.60;99.90;;;;;;5024716;28;20217;-53
2022/05/10 09:26:13;;;;;;;6.13;5.53;;;21.80;99.90;;;;;;4978896;28;20205;-51
2022/05/10 09:28:55;;;;;;;6.53;5.73;;;21.90;99.90;;;;;;4984474;28;20349;-53
2022/05/10 09:34:46;;;;;;;7.60;5.40;;;22.10;99.90;;;;;;4979682;28;20197;-53
2022/05/10 09:37:33;;;;;;;7.03;5.17;;;22.10;99.90;;;;;;4977166;28;20231;-54
2022/05/10 09:40:19;;;;;;;7.77;5.70;;;22.20;99.90;;;;;;4984676;28;20243;-54
2022/05/10 09:42:52;;;;;;;8.13;4.87;;;22.40;99.90;;;;;;4981434;28;20559;-53
2022/05/10 09:45:20;;;;;;;5.60;5.10;;;22.60;99.90;;;;;;4979295;28;20223;-53
2022/05/10 09:47:59;;;;;;;6.03;5.17;;;22.60;99.90;;;;;;4986446;28;20493;-53
2022/05/10 09:50:33;;;;;;;7.20;4.80;;;22.60;99.90;;;;;;4982657;28;20238;-53
2022/05/10 09:53:12;;;;;;;7.30;4.80;;;22.80;99.90;;;;;;4982301;28;20330;-53
2022/05/10 09:55:50;;;;;;;9.80;5.20;;;23.00;99.90;;;;;;4986167;28;20733;-53
2022/05/10 09:58:22;;;;;;;7.60;4.20;;;23.20;99.90;;;;;;5025261;28;20240;-51
2022/05/10 10:00:53;;;;;;;11.00;4.63;;;23.50;99.90;;;;;;5031603;28;20197;-52
2022/05/10 10:03:28;;;;;;;7.00;5.07;;;23.70;99.90;;;;;;5020645;28;20211;-53
2022/05/10 10:06:11;;;;;;;7.40;4.30;;;23.40;99.90;;;;;;5029986;28;20298;-54
2022/05/10 10:08:46;;;;;;;5.13;4.23;;;23.40;99.90;;;;;;5015483;28;20232;-53
2022/05/10 10:11:24;;;;;;;6.73;5.07;;;23.20;99.90;;;;;;5022495;28;20283;-52
2022/05/10 10:13:57;;;;;;;8.43;4.53;;;23.20;99.90;;;;;;5022819;28;20227;-52
2022/05/10 10:16:34;;;;;;;7.90;5.10;;;23.40;99.90;;;;;;5032411;28;20248;-53
2022/05/10 10:19:22;;;;;;;9.17;5.07;;;23.50;99.90;;;;;;5021196;28;20262;-52
2022/05/10 10:22:02;;;;;;;7.87;4.50;;;23.50;99.90;;;;;;5019065;28;20761;-51
2022/05/10 10:24:53;;;;;;;7.70;4.23;;;23.70;99.90;;;;;;5020215;28;20660;-52
2022/05/10 10:27:30;;;;;;;7.20;4.53;;;23.80;99.90;;;;;;5025942;28;20296;-52
2022/05/10 10:30:17;;;;;;;7.00;3.80;;;23.70;99.90;;;;;;5018220;28;20231;-53
2022/05/10 10:32:51;;;;;;;6.37;4.50;;;23.80;99.90;;;;;;5024436;28;20602;-51
2022/05/10 10:35:35;;;;;;;4.93;4.30;;;23.70;99.90;;;;;;5027495;28;20490;-52
2022/05/10 10:38:33;;;;;;;7.80;4.20;;;23.60;99.90;;;;;;5026622;28;20251;-52
2022/05/10 10:41:21;;;;;;;11.93;5.87;;;23.70;99.90;;;;;;5007706;28;20244;-53
2022/05/10 10:44:17;;;;;;;5.47;4.07;;;23.80;99.90;;;;;;5023537;28;20549;-53
2022/05/10 10:47:09;;;;;;;7.13;4.33;;;24.20;99.90;;;;;;5021710;28;20201;-52
2022/05/10 10:49:49;;;;;;;8.30;4.30;;;24.10;99.90;;;;;;5029155;28;20637;-52
2022/05/10 10:52:17;;;;;;;7.80;4.27;;;24.10;99.90;;;;;;5028744;28;20715;-55
2022/05/10 10:54:46;;;;;;;6.50;4.17;;;24.10;99.90;;;;;;5021518;28;20194;-54
2022/05/10 10:57:43;;;;;;;7.90;5.07;;;24.00;99.90;;;;;;5023328;28;20270;-53
2022/05/10 11:00:12;;;;;;;6.53;4.13;;;23.80;99.90;;;;;;5028512;28;20656;-52
2022/05/10 11:02:57;;;;;;;5.87;4.17;;;23.80;99.90;;;;;;5026592;28;20231;-52
2022/05/10 11:06:07;;;;;;;8.73;4.43;;;23.80;99.90;;;;;;5029565;28;20717;-53
2022/05/10 11:08:54;;;;;;;6.00;4.40;;;24.10;99.90;;;;;;5025499;28;20243;-54
2022/05/10 11:11:55;;;;;;;9.20;4.70;;;24.40;99.90;;;;;;5023418;28;20288;-52
2022/05/10 11:14:59;;;;;;;5.00;4.07;;;24.40;99.90;;;;;;5025871;28;20618;-53
2022/05/10 11:17:48;;;;;;;11.27;4.50;;;24.30;99.90;;;;;;5024476;28;20219;-52
2022/05/10 11:20:32;;;;;;;6.93;4.50;;;24.40;99.90;;;;;;5023179;28;20211;-52
2022/05/10 11:23:06;;;;;;;5.43;4.93;;;24.20;99.90;;;;;;5016894;28;20767;-53
2022/05/10 11:26:02;;;;;;;10.23;4.77;;;23.90;99.90;;;;;;5018737;28;20227;-54
2022/05/10 11:29:05;;;;;;;8.33;4.43;;;24.00;99.90;;;;;;5030232;28;20368;-54
2022/05/10 11:31:59;;;;;;;7.07;4.63;;;24.00;99.90;;;;;;5022108;28;20212;-53
2022/05/10 11:35:03;;;;;;;5.03;4.27;;;24.20;99.90;;;;;;5020549;28;20237;-54
2022/05/10 11:37:36;;;;;;;6.50;3.63;;;24.30;99.90;;;;;;5011769;28;20254;-58
2022/05/10 11:40:24;;;;;;;6.43;4.40;;;24.30;99.90;;;;;;5027266;28;20611;-53
2022/05/10 11:43:03;;;;;;;6.23;4.30;;;24.50;99.90;;;;;;5023823;28;20226;-54
2022/05/10 11:45:49;;;;;;;5.63;4.10;;;24.50;99.90;;;;;;5022513;28;20275;-55
2022/05/10 11:48:38;;;;;;;8.20;3.90;;;24.40;99.90;;;;;;5017991;28;20374;-53
2022/05/10 11:51:38;;;;;;;6.57;3.80;;;24.50;99.90;;;;;;5026163;28;20697;-54
2022/05/10 11:54:42;;;;;;;7.20;4.40;;;24.50;99.90;;;;;;5023414;28;20253;-53
2022/05/10 11:57:18;;;;;;;5.23;3.63;;;24.50;99.90;;;;;;5017953;28;20747;-54
2022/05/10 11:59:45;;;;;;;5.80;4.93;;;24.50;99.90;;;;;;5016194;28;20270;-53
2022/05/10 12:02:27;;;;;;;5.93;4.40;;;24.50;99.90;;;;;;5018558;28;20818;-53
2022/05/10 12:05:09;;;;;;;6.70;4.00;;;24.10;99.90;;;;;;5022115;28;20185;-53
2022/05/10 12:07:55;;;;;;;9.53;5.33;;;24.10;99.90;;;;;;5015816;28;20586;-53
2022/05/10 12:10:21;;;;;;;8.23;4.30;;;24.00;99.90;;;;;;5018956;28;20672;-53
2022/05/10 12:12:56;;;;;;;5.40;4.00;;;24.00;99.90;;;;;;5013939;28;20287;-53
2022/05/10 12:21:24;;;;;;;7.80;4.30;;;24.40;99.90;;;;;;5015666;28;20285;-52
2022/05/10 12:24:25;;;;;;;12.87;4.17;;;24.40;99.90;;;;;;5008364;28;20757;-58
2022/05/10 12:27:15;;;;;;;9.10;4.40;;;24.40;99.90;;;;;;5017469;28;20197;-58
2022/05/10 12:29:42;;;;;;;7.37;4.07;;;24.20;99.90;;;;;;5018502;28;20258;-60
2022/05/10 12:32:13;;;;;;;4.87;4.13;;;24.20;99.90;;;;;;5019445;28;20203;-53
2022/05/10 12:34:52;;;;;;;10.77;4.03;;;24.20;99.90;;;;;;5022797;28;20299;-55
2022/05/10 12:37:28;;;;;;;7.40;4.77;;;24.10;99.90;;;;;;5014670;28;20299;-52
2022/05/10 12:40:10;;;;;;;6.53;4.10;;;24.00;99.90;;;;;;5021766;28;20650;-54
2022/05/10 12:42:39;;;;;;;8.23;4.27;;;23.90;99.90;;;;;;5016165;28;20279;-54
2022/05/10 12:45:35;;;;;;;6.40;3.77;;;23.90;99.90;;;;;;5025050;28;20230;-53
2022/05/10 12:48:40;;;;;;;4.90;4.17;;;23.90;99.90;;;;;;5014129;28;20240;-53
2022/05/10 12:51:41;;;;;;;7.20;4.63;;;23.80;99.90;;;;;;5020208;28;20255;-54
2022/05/10 12:54:15;;;;;;;6.07;4.50;;;23.80;99.90;;;;;;5017359;28;20350;-52
2022/05/10 12:56:41;;;;;;;6.67;4.37;;;23.80;99.90;;;;;;5020750;28;20833;-53
2022/05/10 12:59:11;;;;;;;7.23;4.40;;;23.80;99.90;;;;;;5018705;28;20304;-54
2022/05/10 13:01:38;;;;;;;75.50;11.93;;;23.90;99.90;;;;;;5015033;28;20285;-53
2022/05/10 13:04:22;;;;;;;8.10;4.20;;;24.00;99.90;;;;;;5021373;28;20583;-54
2022/05/10 13:07:17;;;;;;;6.70;5.07;;;24.10;99.90;;;;;;5028228;28;20263;-54
2022/05/10 13:09:50;;;;;;;6.27;4.13;;;24.10;99.90;;;;;;5018758;28;20199;-53
2022/05/10 13:12:25;;;;;;;21.87;6.03;;;24.10;99.90;;;;;;5022301;28;20194;-53
2022/05/10 13:15:02;;;;;;;6.37;4.40;;;24.00;99.90;;;;;;5019314;28;20198;-53
2022/05/10 13:17:32;;;;;;;66.87;10.27;;;23.90;99.90;;;;;;5023582;28;21038;-54
2022/05/10 13:20:06;;;;;;;18.57;5.87;;;23.90;99.90;;;;;;5015139;28;20282;-54
2022/05/10 13:22:34;;;;;;;11.47;4.87;;;23.90;99.90;;;;;;5017536;28;20307;-53
2022/05/10 13:25:06;;;;;;;10.37;4.50;;;23.80;99.90;;;;;;5013698;28;20236;-53
2022/05/10 13:27:36;;;;;;;7.17;4.33;;;23.80;99.90;;;;;;5023377;28;20244;-52